Time;durP1;ratioP1;P1;durP2;ratioP2;P2;SDS_P1;SDS_P2;PMS_P1;PMS_P2;Temp;Humidity;BMP_temperature;BMP_pressure;BME280_temperature;BME280_humidity;BME280_pressure;Samples;Min_cycle;Max_cycle;Signal;HPM_P1;HPM_P2
2021/11/14 00:01:52;;;;;;;77.65;31.98;;;;;;;6.21;100.00;101794.56;5009132;28;20029;-75
2021/11/14 00:04:18;;;;;;;70.70;29.35;;;;;;;6.21;100.00;101802.38;5022643;28;20060;-75
2021/11/14 00:06:43;;;;;;;71.35;30.50;;;;;;;6.22;100.00;101805.84;5001143;28;20041;-75
2021/11/14 00:09:11;;;;;;;74.40;30.90;;;;;;;6.20;100.00;101808.53;5022964;28;20037;-75
2021/11/14 00:11:37;;;;;;;81.65;33.22;;;;;;;6.22;100.00;101808.44;4996120;28;20046;-75
2021/11/14 00:14:03;;;;;;;80.15;34.45;;;;;;;6.19;100.00;101816.44;4991011;28;20041;-76
2021/11/14 00:16:28;;;;;;;90.75;34.13;;;;;;;6.20;100.00;101818.13;5024518;28;20067;-75
2021/11/14 00:18:56;;;;;;;85.05;33.75;;;;;;;6.19;100.00;101816.44;5028413;28;20236;-75
2021/11/14 00:21:23;;;;;;;93.35;34.83;;;;;;;6.18;100.00;101820.81;4999695;28;21147;-75
2021/11/14 00:23:49;;;;;;;83.05;34.30;;;;;;;6.19;100.00;101824.25;5006384;28;20065;-75
2021/11/14 00:26:15;;;;;;;90.28;33.95;;;;;;;6.16;100.00;101821.81;5023898;28;20116;-75
2021/11/14 00:28:42;;;;;;;77.97;32.05;;;;;;;6.17;100.00;101832.16;5011396;28;20045;-75
2021/11/14 00:31:12;;;;;;;80.90;32.38;;;;;;;6.17;100.00;101829.53;5013636;28;20041;-76
2021/11/14 00:33:42;;;;;;;78.75;35.28;;;;;;;6.18;100.00;101838.22;4997160;28;20048;-75
2021/11/14 00:36:09;;;;;;;78.00;33.33;;;;;;;6.18;100.00;101838.22;5016378;28;20033;-76
2021/11/14 00:38:34;;;;;;;82.40;35.42;;;;;;;6.19;100.00;101845.09;5018417;28;20061;-75
2021/11/14 00:41:00;;;;;;;82.55;35.15;;;;;;;6.20;100.00;101842.41;5021861;28;20147;-75
2021/11/14 00:43:26;;;;;;;82.55;33.08;;;;;;;6.19;100.00;101845.91;5009013;28;20033;-75
2021/11/14 00:45:51;;;;;;;81.63;32.22;;;;;;;6.15;100.00;101843.59;5003433;28;20057;-75
2021/11/14 00:48:17;;;;;;;82.60;34.13;;;;;;;6.17;100.00;101846.94;5008044;28;20049;-75
2021/11/14 00:50:44;;;;;;;82.13;32.95;;;;;;;6.16;100.00;101850.47;5022635;28;20064;-75
2021/11/14 00:53:12;;;;;;;80.05;33.05;;;;;;;6.18;100.00;101854.69;5006014;28;20817;-75
2021/11/14 00:55:39;;;;;;;70.85;32.63;;;;;;;6.19;100.00;101856.34;5004186;28;20803;-75
2021/11/14 00:58:05;;;;;;;93.05;33.20;;;;;;;6.22;100.00;101856.16;5001462;28;20792;-75
2021/11/14 01:00:31;;;;;;;83.32;32.35;;;;;;;6.19;100.00;101860.72;5024428;28;20076;-75
2021/11/14 01:02:58;;;;;;;91.55;33.72;;;;;;;6.18;100.00;101861.66;5007573;28;20033;-75
2021/11/14 01:05:24;;;;;;;77.00;32.78;;;;;;;6.16;100.00;101863.50;5008103;28;20037;-75
2021/11/14 01:07:51;;;;;;;87.25;33.88;;;;;;;6.15;100.00;101867.88;4984182;28;20041;-75
2021/11/14 01:10:21;;;;;;;97.32;33.72;;;;;;;6.17;100.00;101878.22;5009273;28;20056;-75
2021/11/14 01:12:47;;;;;;;82.97;32.97;;;;;;;6.14;100.00;101873.16;4991193;28;20044;-76
2021/11/14 01:15:15;;;;;;;86.00;34.45;;;;;;;6.19;100.00;101876.34;5002837;28;20669;-74
2021/11/14 01:17:48;;;;;;;84.63;33.63;;;;;;;6.16;100.00;101880.00;5024327;28;20045;-74
2021/11/14 01:20:21;;;;;;;78.88;31.92;;;;;;;6.11;100.00;101876.81;4991601;28;20063;-75
2021/11/14 01:22:48;;;;;;;91.38;32.58;;;;;;;6.16;100.00;101886.94;5018654;28;20112;-75
2021/11/14 01:25:15;;;;;;;85.38;34.65;;;;;;;6.15;100.00;101893.94;4989387;28;20084;-75
2021/11/14 01:27:41;;;;;;;82.55;32.08;;;;;;;6.13;100.00;101895.78;5000648;28;20461;-75
2021/11/14 01:30:11;;;;;;;87.13;32.85;;;;;;;6.12;100.00;101891.53;4977787;28;20028;-75
2021/11/14 01:32:38;;;;;;;93.72;34.25;;;;;;;6.12;100.00;101896.72;5007510;28;20115;-75
2021/11/14 01:35:05;;;;;;;87.07;33.25;;;;;;;6.13;100.00;101901.00;5001129;28;20120;-75
2021/11/14 01:37:31;;;;;;;84.88;33.22;;;;;;;6.10;100.00;101901.16;5002356;28;20034;-75
2021/11/14 01:39:56;;;;;;;93.05;35.15;;;;;;;6.12;100.00;101903.69;5006172;28;20033;-75
2021/11/14 01:42:22;;;;;;;90.65;33.92;;;;;;;6.12;100.00;101901.09;5022674;28;20499;-74
2021/11/14 01:44:48;;;;;;;95.55;34.20;;;;;;;6.12;100.00;101909.75;5003875;28;20403;-77
2021/11/14 01:47:14;;;;;;;91.53;34.30;;;;;;;6.15;100.00;101908.72;5025269;28;20469;-74
2021/11/14 01:49:39;;;;;;;88.88;33.75;;;;;;;6.11;100.00;101899.41;4987272;28;20092;-75
2021/11/14 01:52:05;;;;;;;90.78;33.15;;;;;;;6.13;100.00;101910.59;5006412;28;20453;-75
2021/11/14 01:54:31;;;;;;;89.97;34.05;;;;;;;6.14;100.00;101907.91;5020817;28;20041;-76
2021/11/14 01:56:57;;;;;;;82.07;33.25;;;;;;;6.15;100.00;101906.13;5009400;28;20041;-74
2021/11/14 01:59:23;;;;;;;74.72;32.85;;;;;;;6.14;100.00;101912.25;5004297;28;20991;-75
2021/11/14 02:01:48;;;;;;;85.22;34.03;;;;;;;6.14;100.00;101913.09;4994835;28;20112;-76
2021/11/14 02:04:14;;;;;;;88.50;33.25;;;;;;;6.14;100.00;101923.53;5009438;28;20116;-76
2021/11/14 02:06:46;;;;;;;81.68;32.40;;;;;;;6.13;100.00;101915.78;4987293;28;20041;-76
2021/11/14 02:09:13;;;;;;;82.57;32.37;;;;;;;6.17;100.00;101922.50;4995294;28;20037;-74
2021/11/14 02:11:39;;;;;;;84.13;32.30;;;;;;;6.17;100.00;101919.91;4991387;28;20042;-76
2021/11/14 02:14:05;;;;;;;94.53;34.22;;;;;;;6.17;100.00;101920.72;4996369;28;20044;-76
2021/11/14 02:16:31;;;;;;;89.57;32.75;;;;;;;6.16;100.00;101918.19;5007520;28;20046;-76
2021/11/14 02:18:58;;;;;;;89.20;32.35;;;;;;;6.13;100.00;101927.03;5007338;28;20136;-74
2021/11/14 02:21:24;;;;;;;92.65;33.08;;;;;;;6.12;100.00;101928.00;5008554;28;20160;-74
2021/11/14 02:23:51;;;;;;;92.40;33.63;;;;;;;6.15;100.00;101932.19;5024201;28;20037;-74
2021/11/14 02:26:16;;;;;;;80.13;30.55;;;;;;;6.15;100.00;101932.19;5024010;28;20048;-74
2021/11/14 02:28:42;;;;;;;81.78;32.55;;;;;;;6.18;100.00;101940.66;5020736;28;20863;-75
2021/11/14 02:31:08;;;;;;;90.70;32.80;;;;;;;6.18;100.00;101940.66;5021727;28;20029;-73
2021/11/14 02:33:34;;;;;;;97.78;33.92;;;;;;;6.22;100.00;101939.53;5008308;28;20079;-75
2021/11/14 02:36:09;;;;;;;75.57;31.55;;;;;;;6.21;100.00;101943.06;4974029;28;20045;-75
2021/11/14 02:38:35;;;;;;;86.82;33.85;;;;;;;6.19;100.00;101951.91;5004201;28;20049;-75
2021/11/14 02:41:01;;;;;;;96.32;31.83;;;;;;;6.15;100.00;101955.63;4985619;28;20059;-74
2021/11/14 02:43:27;;;;;;;88.20;32.38;;;;;;;6.14;100.00;101953.94;5007591;28;20041;-73
2021/11/14 02:45:53;;;;;;;104.07;34.55;;;;;;;6.14;100.00;101960.00;4995611;28;20048;-76
2021/11/14 02:48:20;;;;;;;94.95;33.28;;;;;;;6.13;100.00;101960.09;5013891;28;20548;-73
2021/11/14 02:50:49;;;;;;;86.22;32.10;;;;;;;6.15;100.00;101964.25;5007014;28;20045;-76
2021/11/14 02:53:15;;;;;;;98.15;34.13;;;;;;;6.14;100.00;101965.22;5011384;28;20120;-76
2021/11/14 02:55:41;;;;;;;87.47;33.55;;;;;;;6.19;100.00;101960.56;5011686;28;20668;-74
2021/11/14 02:58:08;;;;;;;84.63;32.17;;;;;;;6.17;100.00;101962.41;5007799;28;20065;-74
2021/11/14 03:00:48;;;;;;;96.28;33.13;;;;;;;6.16;100.00;101959.88;5008866;28;20148;-76
2021/11/14 03:03:14;;;;;;;103.68;34.38;;;;;;;6.13;100.00;101963.53;4995188;28;20462;-74
2021/11/14 03:05:40;;;;;;;103.47;34.35;;;;;;;6.16;100.00;101967.69;5027552;28;20056;-74
2021/11/14 03:08:06;;;;;;;102.50;34.75;;;;;;;6.19;100.00;101967.53;5023511;28;20029;-74
2021/11/14 03:10:32;;;;;;;103.55;34.50;;;;;;;6.16;100.00;101970.31;4984834;28;20384;-74
2021/11/14 03:13:08;;;;;;;97.07;34.35;;;;;;;6.14;100.00;101966.94;5010345;28;20522;-75
2021/11/14 03:15:37;;;;;;;102.35;33.08;;;;;;;6.10;100.00;101965.44;4987315;28;20105;-74
2021/11/14 03:18:03;;;;;;;101.38;34.05;;;;;;;6.13;100.00;101976.53;4977638;28;20049;-74
2021/11/14 03:20:29;;;;;;;102.28;33.83;;;;;;;6.13;100.00;101978.31;4987336;28;20544;-75
2021/11/14 03:22:54;;;;;;;95.63;32.70;;;;;;;6.11;100.00;101974.97;5010721;28;20075;-74
2021/11/14 03:25:26;;;;;;;96.28;34.85;;;;;;;6.09;100.00;101980.25;4975117;28;20037;-75
2021/11/14 03:27:53;;;;;;;96.63;32.47;;;;;;;6.10;100.00;101981.09;5010070;28;20072;-73
2021/11/14 03:30:21;;;;;;;91.03;32.42;;;;;;;6.10;100.00;101987.13;5005732;28;20045;-75
2021/11/14 03:32:47;;;;;;;91.85;32.70;;;;;;;6.09;100.00;101989.84;5023532;28;20481;-75
2021/11/14 03:35:13;;;;;;;97.10;32.97;;;;;;;6.11;100.00;101994.03;5022854;28;20029;-74
2021/11/14 03:37:39;;;;;;;93.10;32.60;;;;;;;6.10;100.00;101991.50;5025215;28;20037;-76
2021/11/14 03:40:09;;;;;;;103.20;33.33;;;;;;;6.12;100.00;102006.16;4986746;28;20034;-74
2021/11/14 03:42:35;;;;;;;106.88;34.35;;;;;;;6.11;100.00;101994.03;5003817;28;20029;-75
2021/11/14 03:45:02;;;;;;;106.47;33.88;;;;;;;6.12;100.00;102000.94;4997556;28;20033;-74
2021/11/14 03:47:27;;;;;;;95.40;34.88;;;;;;;6.14;100.00;102003.44;5022219;28;20068;-75
2021/11/14 03:49:53;;;;;;;94.75;33.15;;;;;;;6.18;100.00;102002.34;5023803;28;20045;-75
2021/11/14 03:52:19;;;;;;;91.75;33.17;;;;;;;6.16;100.00;102010.25;4995640;28;20029;-76
2021/11/14 03:54:45;;;;;;;114.32;36.33;;;;;;;6.14;100.00;102006.91;5026256;28;20041;-73
2021/11/14 03:57:10;;;;;;;111.35;35.60;;;;;;;6.12;100.00;102005.28;5009513;28;20047;-75
2021/11/14 03:59:36;;;;;;;101.80;32.85;;;;;;;6.14;100.00;102006.03;5015487;28;20049;-74
2021/11/14 04:02:03;;;;;;;100.18;32.83;;;;;;;6.12;100.00;102008.75;5016170;28;20471;-74
2021/11/14 04:04:28;;;;;;;110.07;32.47;;;;;;;6.14;100.00;102017.31;5023970;28;20582;-75
2021/11/14 04:06:54;;;;;;;105.45;32.80;;;;;;;6.15;100.00;102010.31;4978671;28;20045;-75
2021/11/14 04:09:19;;;;;;;94.25;31.55;;;;;;;6.16;100.00;102025.00;5015822;28;20044;-75
2021/11/14 04:11:45;;;;;;;106.00;32.83;;;;;;;6.16;100.00;102025.00;5000596;28;20516;-75
2021/11/14 04:14:11;;;;;;;106.15;32.60;;;;;;;6.18;100.00;102031.00;5008846;28;20033;-75
2021/11/14 04:16:36;;;;;;;97.95;31.77;;;;;;;6.17;100.00;102031.91;5002679;28;20034;-75
2021/11/14 04:19:02;;;;;;;96.32;32.45;;;;;;;6.19;100.00;102030.06;4995958;28;20037;-74
2021/11/14 04:21:28;;;;;;;92.43;33.65;;;;;;;6.17;100.00;102044.94;5021750;28;20403;-75
2021/11/14 04:23:54;;;;;;;104.28;33.13;;;;;;;6.17;100.00;102047.56;5005023;28;20040;-74
2021/11/14 04:26:20;;;;;;;107.28;32.85;;;;;;;6.16;100.00;102049.31;4998855;28;20507;-75
2021/11/14 04:28:46;;;;;;;114.45;34.53;;;;;;;6.11;100.00;102045.28;4988328;28;20041;-75
2021/11/14 04:31:12;;;;;;;117.97;33.75;;;;;;;6.12;100.00;102047.81;5008399;28;20041;-74
2021/11/14 04:33:37;;;;;;;107.50;33.03;;;;;;;6.14;100.00;102050.31;5006621;28;20034;-75
2021/11/14 04:36:03;;;;;;;112.15;31.95;;;;;;;6.17;100.00;102050.16;5009419;28;20403;-75
2021/11/14 04:38:29;;;;;;;101.75;32.67;;;;;;;6.21;100.00;102056.88;5017951;28;20407;-75
2021/11/14 04:40:55;;;;;;;122.65;34.97;;;;;;;6.18;100.00;102052.69;5006901;28;20036;-74
2021/11/14 04:43:21;;;;;;;118.88;33.72;;;;;;;6.17;100.00;102051.00;5023829;28;20468;-74
2021/11/14 04:45:49;;;;;;;130.80;34.60;;;;;;;6.12;100.00;102052.16;4993006;28;20046;-74
2021/11/14 04:48:16;;;;;;;113.07;32.47;;;;;;;6.14;100.00;102059.00;4992584;28;20037;-75
2021/11/14 04:50:42;;;;;;;126.03;34.08;;;;;;;6.13;100.00;102062.50;5012633;28;20041;-74
2021/11/14 04:53:08;;;;;;;135.45;33.80;;;;;;;6.17;100.00;102063.19;5009263;28;20041;-74
2021/11/14 04:55:35;;;;;;;122.20;32.53;;;;;;;6.19;100.00;102071.75;5013041;28;20092;-75
2021/11/14 04:58:02;;;;;;;139.52;33.90;;;;;;;6.14;100.00;102068.56;4977198;28;20399;-74
2021/11/14 05:00:33;;;;;;;125.90;33.03;;;;;;;6.15;100.00;102070.25;4974040;28;20037;-74
2021/11/14 05:02:59;;;;;;;137.35;34.45;;;;;;;6.11;100.00;102072.19;5009118;28;20088;-76
2021/11/14 05:05:24;;;;;;;138.10;35.13;;;;;;;6.15;100.00;102076.28;5010246;28;20387;-76
2021/11/14 05:07:50;;;;;;;138.35;35.97;;;;;;;6.13;100.00;102069.50;4997239;28;20033;-74
2021/11/14 05:10:16;;;;;;;127.35;33.83;;;;;;;6.13;100.00;102078.16;5007292;28;20305;-76
2021/11/14 05:12:42;;;;;;;138.27;34.10;;;;;;;6.18;100.00;102073.53;5024586;28;20034;-75
2021/11/14 05:15:08;;;;;;;138.45;34.40;;;;;;;6.19;100.00;102084.78;4993066;28;20037;-76
2021/11/14 05:17:34;;;;;;;133.55;32.25;;;;;;;6.20;100.00;102084.69;5015773;28;20486;-76
2021/11/14 05:19:59;;;;;;;158.70;34.88;;;;;;;6.21;100.00;102082.94;4993584;28;20041;-76
2021/11/14 05:22:25;;;;;;;151.13;35.72;;;;;;;6.20;100.00;102083.88;5008867;28;20036;-76
2021/11/14 05:24:51;;;;;;;158.65;35.55;;;;;;;6.21;100.00;102082.94;5004937;28;20033;-75
2021/11/14 05:27:17;;;;;;;155.70;35.25;;;;;;;6.23;100.00;102081.94;5023446;28;20479;-76
2021/11/14 05:29:42;;;;;;;155.43;34.90;;;;;;;6.21;100.00;102078.53;4989898;28;20462;-76
2021/11/14 05:32:09;;;;;;;143.63;33.05;;;;;;;6.24;100.00;102085.38;5008152;28;20711;-76
2021/11/14 05:34:34;;;;;;;158.35;34.38;;;;;;;6.26;100.00;102085.28;5024382;28;20037;-75
2021/11/14 05:37:00;;;;;;;154.30;34.85;;;;;;;6.23;100.00;102087.16;5016315;28;20040;-74
2021/11/14 05:39:25;;;;;;;135.90;33.10;;;;;;;6.24;100.00;102096.63;5018483;28;20067;-75
2021/11/14 05:41:51;;;;;;;150.25;33.58;;;;;;;6.26;100.00;102100.94;5008136;28;20034;-74
2021/11/14 05:44:16;;;;;;;141.75;33.17;;;;;;;6.24;100.00;102098.41;4995771;28;20064;-74
2021/11/14 05:46:42;;;;;;;187.18;34.10;;;;;;;6.25;100.00;102107.88;5013935;28;20388;-74
2021/11/14 05:49:09;;;;;;;185.13;35.00;;;;;;;6.25;100.00;102118.31;5026519;28;20044;-75
2021/11/14 05:51:36;;;;;;;154.70;33.50;;;;;;;6.27;100.00;102113.84;5020839;28;20042;-77
2021/11/14 05:54:03;;;;;;;142.05;32.58;;;;;;;6.23;100.00;102115.81;5012833;28;20064;-74
2021/11/14 05:56:28;;;;;;;141.10;32.80;;;;;;;6.23;100.00;102122.75;5020019;28;20034;-77
2021/11/14 05:59:47;;;;;;;147.30;31.90;;;;;;;6.27;100.00;102124.28;5023841;28;20509;-74
2021/11/14 06:06:46;;;;;;;135.30;31.35;;;;;;;6.28;100.00;102135.56;5007389;28;20060;-76
2021/11/14 06:09:11;;;;;;;137.77;32.88;;;;;;;6.29;100.00;102135.47;5013653;28;20037;-76
2021/11/14 06:11:37;;;;;;;156.63;34.33;;;;;;;6.27;100.00;102134.69;5024588;28;20581;-76
2021/11/14 06:14:04;;;;;;;137.30;31.55;;;;;;;6.28;100.00;102146.81;4990548;28;20565;-76
2021/11/14 06:16:29;;;;;;;127.30;30.27;;;;;;;6.27;100.00;102139.06;4984531;28;20048;-76
2021/11/14 06:18:56;;;;;;;132.40;29.92;;;;;;;6.26;100.00;102158.25;5024540;28;20044;-75
2021/11/14 06:21:23;;;;;;;139.48;30.73;;;;;;;6.27;100.00;102160.75;5024847;28;20108;-75
2021/11/14 06:23:52;;;;;;;145.68;32.45;;;;;;;6.27;100.00;102165.13;5020471;28;20068;-75
2021/11/14 06:26:18;;;;;;;130.82;31.02;;;;;;;6.28;100.00;102170.25;5005678;28;20136;-75
2021/11/14 06:28:44;;;;;;;138.73;30.80;;;;;;;6.28;100.00;102172.03;5004038;28;20049;-76
2021/11/14 06:31:10;;;;;;;132.25;31.38;;;;;;;6.30;100.00;102178.00;4991785;28;20815;-75
2021/11/14 06:33:35;;;;;;;146.82;32.90;;;;;;;6.30;100.00;102185.81;5015244;28;20042;-75
2021/11/14 06:36:01;;;;;;;131.70;30.40;;;;;;;6.29;100.00;102189.34;4997988;28;20034;-76
2021/11/14 06:38:27;;;;;;;125.65;30.50;;;;;;;6.29;100.00;102191.94;4992161;28;20372;-76
2021/11/14 06:40:52;;;;;;;121.65;30.17;;;;;;;6.32;100.00;102203.03;5021629;28;20108;-76
2021/11/14 06:43:18;;;;;;;123.90;30.88;;;;;;;6.30;100.00;102210.09;5011134;28;20478;-75
2021/11/14 06:45:43;;;;;;;113.05;31.70;;;;;;;6.31;100.00;102209.19;5004285;28;20171;-76
2021/11/14 06:48:09;;;;;;;118.78;30.92;;;;;;;6.32;100.00;102210.88;4988944;28;20510;-76
2021/11/14 06:50:35;;;;;;;125.85;32.13;;;;;;;6.34;100.00;102224.66;5001277;28;20037;-75
2021/11/14 06:53:00;;;;;;;127.25;32.33;;;;;;;6.31;100.00;102224.84;4999768;28;20032;-76
2021/11/14 06:55:26;;;;;;;121.63;31.33;;;;;;;6.33;100.00;102222.97;4990035;28;20029;-76
2021/11/14 06:57:52;;;;;;;131.77;33.55;;;;;;;6.30;100.00;102228.34;5023371;28;20094;-76
2021/11/14 07:00:21;;;;;;;116.72;31.08;;;;;;;6.28;100.00;102232.81;5023716;28;20090;-75
2021/11/14 07:02:47;;;;;;;118.25;30.65;;;;;;;6.33;100.00;102242.97;4984277;28;20180;-76
2021/11/14 07:05:13;;;;;;;129.85;32.55;;;;;;;6.35;100.00;102247.19;5005768;28;20039;-76
2021/11/14 07:07:39;;;;;;;116.57;31.35;;;;;;;6.32;100.00;102254.34;5002427;28;20041;-76
2021/11/14 07:10:09;;;;;;;107.80;31.85;;;;;;;6.34;100.00;102253.31;5007996;28;20037;-76
2021/11/14 07:12:35;;;;;;;120.20;32.22;;;;;;;6.32;100.00;102262.16;4987020;28;20057;-76
2021/11/14 07:15:02;;;;;;;111.00;31.45;;;;;;;6.33;100.00;102267.28;4995873;28;20033;-76
2021/11/14 07:17:28;;;;;;;107.65;31.75;;;;;;;6.34;100.00;102270.72;5024100;28;20522;-75
2021/11/14 07:19:54;;;;;;;120.15;33.75;;;;;;;6.38;100.00;102278.28;4991288;28;20157;-76
2021/11/14 07:22:20;;;;;;;110.82;31.65;;;;;;;6.36;100.00;102280.13;4997873;28;20033;-76
2021/11/14 07:24:46;;;;;;;133.27;32.30;;;;;;;6.34;100.00;102278.53;5017570;28;20038;-76
2021/11/14 07:27:12;;;;;;;105.93;31.10;;;;;;;6.40;100.00;102291.25;5004712;28;20045;-76
2021/11/14 07:29:37;;;;;;;107.97;31.48;;;;;;;6.42;100.00;102292.00;5002569;28;20046;-76
2021/11/14 07:32:03;;;;;;;106.32;33.85;;;;;;;6.42;100.00;102290.25;4997362;28;20431;-76
2021/11/14 07:34:29;;;;;;;103.18;32.33;;;;;;;6.45;100.00;102296.22;5023982;28;20034;-76
2021/11/14 07:36:54;;;;;;;98.80;32.03;;;;;;;6.44;100.00;102297.97;5021478;28;20036;-76
2021/11/14 07:39:20;;;;;;;100.78;32.47;;;;;;;6.46;100.00;102297.91;5009274;28;20153;-75
2021/11/14 07:41:45;;;;;;;100.65;32.28;;;;;;;6.47;100.00;102304.81;4979770;28;20042;-76
2021/11/14 07:44:12;;;;;;;105.55;32.63;;;;;;;6.45;100.00;102304.88;5000859;28;20072;-76
2021/11/14 07:46:38;;;;;;;99.93;32.25;;;;;;;6.48;100.00;102312.56;5027051;28;20056;-76
2021/11/14 07:49:04;;;;;;;102.82;33.13;;;;;;;6.48;100.00;102312.56;5010191;28;20029;-76
2021/11/14 07:51:30;;;;;;;100.78;33.10;;;;;;;6.49;100.00;102316.81;5016442;28;20557;-76
2021/11/14 07:53:56;;;;;;;102.38;32.95;;;;;;;6.51;100.00;102314.13;5002682;28;20033;-75
2021/11/14 07:56:21;;;;;;;103.38;34.53;;;;;;;6.51;100.00;102316.75;5005203;28;20049;-76
2021/11/14 07:58:47;;;;;;;106.63;35.05;;;;;;;6.54;100.00;102320.03;5023332;28;20053;-76
2021/11/14 08:01:13;;;;;;;99.50;33.03;;;;;;;6.58;100.00;102328.53;4992893;28;20065;-75
2021/11/14 08:03:38;;;;;;;100.30;34.65;;;;;;;6.59;100.00;102335.44;5013111;28;20083;-75
2021/11/14 08:06:04;;;;;;;102.93;34.83;;;;;;;6.59;100.00;102336.28;5011213;28;20037;-75
2021/11/14 08:08:30;;;;;;;108.80;34.70;;;;;;;6.62;100.00;102338.72;5003458;28;20044;-76
2021/11/14 08:10:56;;;;;;;107.05;34.90;;;;;;;6.66;100.00;102346.38;4992555;28;20040;-76
2021/11/14 08:13:22;;;;;;;105.95;35.13;;;;;;;6.68;100.00;102350.59;5008148;28;20644;-76
2021/11/14 08:15:47;;;;;;;100.88;33.97;;;;;;;6.70;100.00;102353.13;5000211;28;20046;-76
2021/11/14 08:18:14;;;;;;;102.65;32.45;;;;;;;6.69;100.00;102349.66;4994408;28;20043;-76
2021/11/14 08:20:39;;;;;;;103.22;34.50;;;;;;;6.75;100.00;102351.09;5013962;28;20065;-76
2021/11/14 08:23:06;;;;;;;104.13;33.83;;;;;;;6.79;100.00;102356.06;5016838;28;20738;-76
2021/11/14 08:25:34;;;;;;;103.38;34.70;;;;;;;6.84;100.00;102358.44;4989831;28;20703;-76
2021/11/14 08:28:00;;;;;;;107.97;37.90;;;;;;;6.84;100.00;102363.66;4994593;28;20041;-76
2021/11/14 08:30:26;;;;;;;102.82;37.13;;;;;;;6.91;100.00;102370.25;5010201;28;20399;-76
2021/11/14 08:32:52;;;;;;;101.28;36.88;;;;;;;6.87;100.00;102363.47;5025310;28;20038;-76
2021/11/14 08:35:20;;;;;;;100.43;37.17;;;;;;;6.91;100.00;102371.97;5007790;28;20588;-76
2021/11/14 08:37:47;;;;;;;98.15;38.13;;;;;;;6.95;100.00;102370.88;4998767;28;20124;-76
2021/11/14 08:40:14;;;;;;;106.60;38.45;;;;;;;6.97;100.00;102372.50;4996919;28;20044;-76
2021/11/14 08:42:40;;;;;;;113.35;40.67;;;;;;;6.95;100.00;102371.75;5002585;28;20040;-76
2021/11/14 08:45:07;;;;;;;102.97;37.40;;;;;;;6.97;100.00;102379.50;5009900;28;20094;-75
2021/11/14 08:47:33;;;;;;;105.50;39.55;;;;;;;7.01;100.00;102383.63;5013858;28;20406;-75
2021/11/14 08:50:00;;;;;;;112.35;39.67;;;;;;;6.92;100.00;102379.72;5026601;28;20033;-76
2021/11/14 08:52:27;;;;;;;107.20;39.60;;;;;;;6.97;100.00;102389.94;4993432;28;20072;-76
2021/11/14 08:54:53;;;;;;;100.32;39.20;;;;;;;7.08;100.00;102386.72;4996569;28;20398;-76
2021/11/14 08:57:19;;;;;;;104.13;40.40;;;;;;;7.00;100.00;102400.19;4990790;28;20029;-75
2021/11/14 08:59:47;;;;;;;111.55;41.03;;;;;;;6.93;100.00;102399.69;5023701;28;20537;-76
2021/11/14 09:02:13;;;;;;;104.63;41.17;;;;;;;6.91;100.00;102400.69;4991915;28;20479;-75
2021/11/14 09:04:39;;;;;;;112.78;42.28;;;;;;;6.91;100.00;102398.94;4992096;28;20631;-75
2021/11/14 09:07:06;;;;;;;110.25;41.45;;;;;;;6.89;100.00;102402.53;5028532;28;20394;-76
2021/11/14 09:09:32;;;;;;;106.50;41.40;;;;;;;6.82;100.00;102412.47;5003530;28;20093;-76
2021/11/14 09:11:57;;;;;;;107.80;42.28;;;;;;;6.79;100.00;102404.78;4992067;28;20043;-75
2021/11/14 09:14:24;;;;;;;105.38;41.60;;;;;;;6.78;100.00;102411.78;4994535;28;20494;-75
2021/11/14 09:16:51;;;;;;;103.72;40.75;;;;;;;6.83;100.00;102414.97;5013873;28;20045;-76
2021/11/14 09:19:17;;;;;;;116.90;42.15;;;;;;;6.81;100.00;102414.19;5004117;28;20033;-75
2021/11/14 09:21:43;;;;;;;111.05;42.25;;;;;;;6.78;100.00;102421.34;4989701;28;20443;-75
2021/11/14 09:24:09;;;;;;;110.07;40.80;;;;;;;6.75;100.00;102421.53;5011220;28;20423;-75
2021/11/14 09:26:37;;;;;;;106.25;41.03;;;;;;;6.79;100.00;102436.91;5002250;28;20038;-75
2021/11/14 09:29:03;;;;;;;112.20;40.83;;;;;;;6.79;100.00;102433.47;5010667;28;20033;-75
2021/11/14 09:31:29;;;;;;;99.00;38.35;;;;;;;6.84;100.00;102434.09;4984160;28;20043;-76
2021/11/14 09:33:57;;;;;;;106.50;38.60;;;;;;;6.77;100.00;102443.97;4984002;28;20137;-76
2021/11/14 09:36:26;;;;;;;98.28;38.35;;;;;;;6.77;100.00;102443.97;5005234;28;20044;-76
2021/11/14 09:38:52;;;;;;;103.13;37.80;;;;;;;6.83;100.00;102450.66;5016999;28;20341;-75
2021/11/14 09:41:18;;;;;;;109.57;39.63;;;;;;;6.80;100.00;102448.22;5008136;28;20033;-76
2021/11/14 09:43:43;;;;;;;102.00;37.50;;;;;;;6.80;100.00;102450.81;5022178;28;20919;-75
2021/11/14 09:46:09;;;;;;;99.97;36.15;;;;;;;6.82;100.00;102451.59;4991374;28;20125;-77
2021/11/14 09:48:35;;;;;;;100.55;36.78;;;;;;;6.86;100.00;102462.69;5028232;28;20041;-75
2021/11/14 09:51:00;;;;;;;98.28;34.60;;;;;;;6.88;100.00;102453.88;5005409;28;20033;-75
2021/11/14 09:53:30;;;;;;;92.90;34.72;;;;;;;6.89;100.00;102452.91;5002257;28;20045;-76
2021/11/14 09:56:00;;;;;;;87.60;34.35;;;;;;;6.90;100.00;102459.84;5023287;28;20025;-75
2021/11/14 09:58:26;;;;;;;89.90;33.65;;;;;;;6.92;100.00;102454.53;4974323;28;20072;-75
2021/11/14 10:00:52;;;;;;;92.68;35.83;;;;;;;6.91;100.00;102464.16;4991541;28;20053;-75
2021/11/14 10:03:20;;;;;;;83.43;31.90;;;;;;;6.91;100.00;102471.09;4995971;28;20095;-75
2021/11/14 10:05:48;;;;;;;80.38;30.88;;;;;;;6.97;100.00;102474.25;5023339;28;20494;-76
2021/11/14 10:08:15;;;;;;;78.53;30.60;;;;;;;7.01;100.00;102478.38;5007361;28;20163;-76
2021/11/14 10:10:53;;;;;;;74.28;29.00;;;;;;;7.06;100.00;102475.50;4997381;28;20044;-76
2021/11/14 10:13:34;;;;;;;78.80;31.10;;;;;;;7.03;100.00;102473.09;4988184;28;20498;-75
2021/11/14 10:16:12;;;;;;;81.80;30.92;;;;;;;7.04;100.00;102476.53;5005476;28;20040;-75
2021/11/14 10:18:45;;;;;;;77.35;31.92;;;;;;;6.97;100.00;102482.09;5019446;28;20050;-75
2021/11/14 10:21:10;;;;;;;;;;;;;;;6.96;100.00;102484.75;5007481;28;20123;-76
2021/11/14 10:23:37;;;;;;;90.90;34.95;;;;;;;6.93;100.00;102479.69;5006254;28;20380;-75
2021/11/14 10:26:10;;;;;;;87.57;34.33;;;;;;;6.95;100.00;102483.94;5006917;28;20036;-75
2021/11/14 10:28:41;;;;;;;93.30;34.13;;;;;;;7.08;100.00;102485.88;5007466;28;20046;-76
2021/11/14 10:31:08;;;;;;;87.05;34.53;;;;;;;7.13;100.00;102486.47;5025005;28;20104;-76
2021/11/14 10:33:33;;;;;;;92.93;36.53;;;;;;;7.17;100.00;102490.63;5000470;28;20057;-75
2021/11/14 10:36:00;;;;;;;97.65;37.95;;;;;;;7.15;100.00;102492.47;5009415;28;20029;-75
2021/11/14 10:38:31;;;;;;;92.18;37.58;;;;;;;7.15;100.00;102488.06;4994022;28;20033;-76
2021/11/14 10:41:00;;;;;;;104.60;42.38;;;;;;;7.22;100.00;102492.06;5023122;28;20137;-76
2021/11/14 10:43:30;;;;;;;107.85;41.97;;;;;;;7.25;100.00;102491.03;5009141;28;20030;-75
2021/11/14 10:45:59;;;;;;;95.03;40.47;;;;;;;7.27;100.00;102497.03;5019056;28;20490;-75
2021/11/14 10:48:28;;;;;;;100.30;40.55;;;;;;;7.34;100.00;102487.94;4985810;28;20052;-75
2021/11/14 10:50:56;;;;;;;108.05;42.67;;;;;;;7.39;100.00;102500.75;5025194;28;20041;-75
2021/11/14 10:53:28;;;;;;;112.70;44.03;;;;;;;7.37;100.00;102503.44;4995205;28;20038;-75
2021/11/14 10:56:03;;;;;;;105.15;43.50;;;;;;;7.38;100.00;102499.94;5008274;28;20120;-75
2021/11/14 10:58:30;;;;;;;113.88;43.72;;;;;;;7.40;100.00;102502.44;5005033;28;20466;-75
2021/11/14 11:01:03;;;;;;;113.63;43.10;;;;;;;7.44;100.00;102506.59;5026007;28;20033;-76
2021/11/14 11:03:40;;;;;;;105.88;42.05;;;;;;;7.44;100.00;102508.31;5021248;28;20044;-75
2021/11/14 11:06:08;;;;;;;104.07;42.95;;;;;;;7.48;100.00;102507.22;5003557;28;20113;-75
2021/11/14 11:08:35;;;;;;;108.55;42.83;;;;;;;7.49;100.00;102506.31;4987556;28;20099;-76